sensor_id;sensor_type;location;lat;lon;timestamp;pressure;altitude;pressure_sealevel;temperature;humidity
59104;BME280;51449;51.676;5.812;2022-12-18T00:02:13;102813.91;;;-3.59;76.66
59104;BME280;51449;51.676;5.812;2022-12-18T00:04:35;102815.94;;;-3.61;76.39
59104;BME280;51449;51.676;5.812;2022-12-18T00:06:56;102816.97;;;-3.62;76.78
59104;BME280;51449;51.676;5.812;2022-12-18T00:09:18;102822.19;;;-3.60;76.74
59104;BME280;51449;51.676;5.812;2022-12-18T00:11:41;102818.84;;;-3.62;76.68
59104;BME280;51449;51.676;5.812;2022-12-18T00:14:03;102814.47;;;-3.63;76.70
59104;BME280;51449;51.676;5.812;2022-12-18T00:16:26;102809.28;;;-3.65;76.53
59104;BME280;51449;51.676;5.812;2022-12-18T00:18:53;102814.84;;;-3.67;76.72
59104;BME280;51449;51.676;5.812;2022-12-18T00:21:16;102809.84;;;-3.70;76.48
59104;BME280;51449;51.676;5.812;2022-12-18T00:23:41;102812.94;;;-3.73;76.31
59104;BME280;51449;51.676;5.812;2022-12-18T00:26:11;102819.31;;;-3.74;75.96
59104;BME280;51449;51.676;5.812;2022-12-18T00:28:37;102811.63;;;-3.77;76.30
59104;BME280;51449;51.676;5.812;2022-12-18T00:31:13;102801.69;;;-3.76;76.52
59104;BME280;51449;51.676;5.812;2022-12-18T00:33:37;102807.63;;;-3.81;76.40
59104;BME280;51449;51.676;5.812;2022-12-18T00:36:09;102806.38;;;-3.85;76.31
59104;BME280;51449;51.676;5.812;2022-12-18T00:38:35;102796.97;;;-3.89;76.02
59104;BME280;51449;51.676;5.812;2022-12-18T00:40:58;102798.03;;;-3.90;76.42
59104;BME280;51449;51.676;5.812;2022-12-18T00:43:20;102799.03;;;-3.91;75.99
59104;BME280;51449;51.676;5.812;2022-12-18T00:45:41;102798.19;;;-3.92;76.26
59104;BME280;51449;51.676;5.812;2022-12-18T00:48:04;102801.72;;;-3.91;76.45
59104;BME280;51449;51.676;5.812;2022-12-18T00:50:26;102800.25;;;-3.94;76.24
59104;BME280;51449;51.676;5.812;2022-12-18T00:52:48;102794.03;;;-3.94;75.99
59104;BME280;51449;51.676;5.812;2022-12-18T00:55:11;102793.19;;;-3.95;76.36
59104;BME280;51449;51.676;5.812;2022-12-18T00:57:33;102789.84;;;-3.97;76.42
59104;BME280;51449;51.676;5.812;2022-12-18T00:59:55;102792.06;;;-4.00;76.17
59104;BME280;51449;51.676;5.812;2022-12-18T01:02:17;102793.47;;;-4.04;76.02
59104;BME280;51449;51.676;5.812;2022-12-18T01:04:39;102798.38;;;-4.08;75.95
59104;BME280;51449;51.676;5.812;2022-12-18T01:07:01;102796.25;;;-4.13;76.00
59104;BME280;51449;51.676;5.812;2022-12-18T01:09:23;102796.47;;;-4.14;75.67
59104;BME280;51449;51.676;5.812;2022-12-18T01:11:46;102804.88;;;-4.17;75.82
59104;BME280;51449;51.676;5.812;2022-12-18T01:14:08;102804.88;;;-4.17;75.99
59104;BME280;51449;51.676;5.812;2022-12-18T01:16:31;102804.88;;;-4.17;75.79
59104;BME280;51449;51.676;5.812;2022-12-18T01:18:54;102799.50;;;-4.17;75.72
59104;BME280;51449;51.676;5.812;2022-12-18T01:21:16;102806.75;;;-4.18;75.80
59104;BME280;51449;51.676;5.812;2022-12-18T01:23:38;102810.47;;;-4.19;76.21
59104;BME280;51449;51.676;5.812;2022-12-18T01:26:10;102817.72;;;-4.19;75.79
59104;BME280;51449;51.676;5.812;2022-12-18T01:28:34;102821.41;;;-4.20;76.06
59104;BME280;51449;51.676;5.812;2022-12-18T01:30:56;102814.56;;;-4.23;75.69
59104;BME280;51449;51.676;5.812;2022-12-18T01:33:18;102814.72;;;-4.24;75.64
59104;BME280;51449;51.676;5.812;2022-12-18T01:35:41;102805.16;;;-4.27;75.86
59104;BME280;51449;51.676;5.812;2022-12-18T01:38:04;102803.50;;;-4.28;76.13
59104;BME280;51449;51.676;5.812;2022-12-18T01:40:25;102804.72;;;-4.31;75.84
59104;BME280;51449;51.676;5.812;2022-12-18T01:42:52;102806.59;;;-4.31;75.49
59104;BME280;51449;51.676;5.812;2022-12-18T01:50:40;102791.53;;;-4.40;75.69
59104;BME280;51449;51.676;5.812;2022-12-18T01:55:32;102806.94;;;-4.49;75.70
59104;BME280;51449;51.676;5.812;2022-12-18T01:58:00;102812.50;;;-4.50;75.42
59104;BME280;51449;51.676;5.812;2022-12-18T02:00:23;102800.25;;;-4.53;75.31
59104;BME280;51449;51.676;5.812;2022-12-18T02:02:48;102802.94;;;-4.53;75.74
59104;BME280;51449;51.676;5.812;2022-12-18T02:05:16;102795.72;;;-4.53;75.80
59104;BME280;51449;51.676;5.812;2022-12-18T02:10:36;102795.88;;;-4.54;75.72
59104;BME280;51449;51.676;5.812;2022-12-18T02:13:21;102794.88;;;-4.53;75.70
59104;BME280;51449;51.676;5.812;2022-12-18T02:19:00;102795.44;;;-4.58;75.51
59104;BME280;51449;51.676;5.812;2022-12-18T02:21:52;102798.78;;;-4.56;75.62
59104;BME280;51449;51.676;5.812;2022-12-18T02:25:10;102793.19;;;-4.54;75.83
59104;BME280;51449;51.676;5.812;2022-12-18T02:27:56;102790.06;;;-4.58;75.59
59104;BME280;51449;51.676;5.812;2022-12-18T02:30:22;102795.59;;;-4.59;75.65
59104;BME280;51449;51.676;5.812;2022-12-18T02:32:50;102789.56;;;-4.61;75.58
59104;BME280;51449;51.676;5.812;2022-12-18T02:35:20;102792.25;;;-4.61;75.41
59104;BME280;51449;51.676;5.812;2022-12-18T02:37:48;102787.91;;;-4.62;75.65
59104;BME280;51449;51.676;5.812;2022-12-18T02:40:11;102793.28;;;-4.62;75.76
59104;BME280;51449;51.676;5.812;2022-12-18T02:42:35;102795.16;;;-4.63;75.54
59104;BME280;51449;51.676;5.812;2022-12-18T02:45:00;102798.00;;;-4.64;75.53
59104;BME280;51449;51.676;5.812;2022-12-18T02:47:24;102793.84;;;-4.67;75.52
59104;BME280;51449;51.676;5.812;2022-12-18T02:53:14;102790.50;;;-4.69;75.71
59104;BME280;51449;51.676;5.812;2022-12-18T02:56:21;102780.78;;;-4.70;75.03
59104;BME280;51449;51.676;5.812;2022-12-18T02:59:06;102775.94;;;-4.75;75.23
59104;BME280;51449;51.676;5.812;2022-12-18T03:01:57;102770.72;;;-4.76;75.41
59104;BME280;51449;51.676;5.812;2022-12-18T03:04:40;102771.75;;;-4.77;75.49
59104;BME280;51449;51.676;5.812;2022-12-18T03:07:20;102771.28;;;-4.81;75.62
59104;BME280;51449;51.676;5.812;2022-12-18T03:09:51;102765.06;;;-4.81;75.27
59104;BME280;51449;51.676;5.812;2022-12-18T03:12:35;102774.81;;;-4.80;75.52
59104;BME280;51449;51.676;5.812;2022-12-18T03:15:10;102776.66;;;-4.81;75.67
59104;BME280;51449;51.676;5.812;2022-12-18T03:17:43;102777.31;;;-4.79;75.35
59104;BME280;51449;51.676;5.812;2022-12-18T03:20:15;102779.81;;;-4.77;75.76
59104;BME280;51449;51.676;5.812;2022-12-18T03:22:43;102769.91;;;-4.77;75.61
59104;BME280;51449;51.676;5.812;2022-12-18T03:25:11;102774.25;;;-4.76;75.76
59104;BME280;51449;51.676;5.812;2022-12-18T03:27:40;102774.25;;;-4.76;75.46
59104;BME280;51449;51.676;5.812;2022-12-18T03:30:11;102779.63;;;-4.76;75.43
59104;BME280;51449;51.676;5.812;2022-12-18T03:32:47;102774.25;;;-4.76;75.56
59104;BME280;51449;51.676;5.812;2022-12-18T03:35:24;102776.31;;;-4.78;75.70
59104;BME280;51449;51.676;5.812;2022-12-18T03:37:52;102774.63;;;-4.79;75.73
59104;BME280;51449;51.676;5.812;2022-12-18T03:40:14;102767.75;;;-4.81;75.57
59104;BME280;51449;51.676;5.812;2022-12-18T03:42:46;102759.69;;;-4.81;75.50
59104;BME280;51449;51.676;5.812;2022-12-18T03:45:23;102760.72;;;-4.82;75.54
59104;BME280;51449;51.676;5.812;2022-12-18T03:48:00;102751.19;;;-4.85;75.45
59104;BME280;51449;51.676;5.812;2022-12-18T03:55:53;102741.03;;;-4.98;75.39
59104;BME280;51449;51.676;5.812;2022-12-18T03:58:24;102734.00;;;-4.99;75.34
59104;BME280;51449;51.676;5.812;2022-12-18T04:00:59;102733.16;;;-4.99;75.69
59104;BME280;51449;51.676;5.812;2022-12-18T04:03:25;102727.78;;;-4.99;75.28
59104;BME280;51449;51.676;5.812;2022-12-18T04:05:52;102722.59;;;-5.01;75.10
59104;BME280;51449;51.676;5.812;2022-12-18T04:08:17;102727.13;;;-5.01;74.91
59104;BME280;51449;51.676;5.812;2022-12-18T04:10:48;102736.22;;;-5.02;75.33
59104;BME280;51449;51.676;5.812;2022-12-18T04:13:10;102719.44;;;-5.04;75.20
59104;BME280;51449;51.676;5.812;2022-12-18T04:15:34;102723.78;;;-5.03;75.38
59104;BME280;51449;51.676;5.812;2022-12-18T04:17:59;102720.28;;;-5.04;75.30
59104;BME280;51449;51.676;5.812;2022-12-18T04:20:29;102722.13;;;-5.04;75.36
59104;BME280;51449;51.676;5.812;2022-12-18T04:22:52;102717.59;;;-5.04;75.27
59104;BME280;51449;51.676;5.812;2022-12-18T04:25:14;102724.81;;;-5.04;75.51
59104;BME280;51449;51.676;5.812;2022-12-18T04:27:48;102714.91;;;-5.04;75.11
59104;BME280;51449;51.676;5.812;2022-12-18T04:30:10;102707.66;;;-5.03;75.40
59104;BME280;51449;51.676;5.812;2022-12-18T04:32:33;102706.00;;;-5.04;75.46
59104;BME280;51449;51.676;5.812;2022-12-18T04:34:56;102708.69;;;-5.04;75.57
59104;BME280;51449;51.676;5.812;2022-12-18T04:37:18;102708.88;;;-5.06;75.34
59104;BME280;51449;51.676;5.812;2022-12-18T04:39:40;102694.59;;;-5.06;75.51
59104;BME280;51449;51.676;5.812;2022-12-18T04:42:09;102698.13;;;-5.06;75.36
59104;BME280;51449;51.676;5.812;2022-12-18T04:44:31;102702.66;;;-5.06;75.50
59104;BME280;51449;51.676;5.812;2022-12-18T04:46:53;102708.03;;;-5.06;75.41
59104;BME280;51449;51.676;5.812;2022-12-18T04:49:16;102699.97;;;-5.06;75.50
59104;BME280;51449;51.676;5.812;2022-12-18T04:51:38;102709.34;;;-5.02;75.20
59104;BME280;51449;51.676;5.812;2022-12-18T04:54:00;102710.84;;;-5.00;75.47
59104;BME280;51449;51.676;5.812;2022-12-18T04:56:22;102710.84;;;-5.00;75.55
59104;BME280;51449;51.676;5.812;2022-12-18T04:58:45;102715.19;;;-4.99;75.50
59104;BME280;51449;51.676;5.812;2022-12-18T05:01:07;102716.84;;;-4.98;75.34
59104;BME280;51449;51.676;5.812;2022-12-18T05:03:31;102718.53;;;-4.97;75.59
59104;BME280;51449;51.676;5.812;2022-12-18T05:05:53;102713.31;;;-4.98;75.39
59104;BME280;51449;51.676;5.812;2022-12-18T05:08:15;102723.06;;;-4.97;75.40
59104;BME280;51449;51.676;5.812;2022-12-18T05:10:37;102731.31;;;-4.99;75.21
59104;BME280;51449;51.676;5.812;2022-12-18T05:12:59;102740.19;;;-4.98;75.20
59104;BME280;51449;51.676;5.812;2022-12-18T05:15:21;102745.56;;;-4.98;75.43
59104;BME280;51449;51.676;5.812;2022-12-18T05:17:43;102755.31;;;-4.97;75.50
59104;BME280;51449;51.676;5.812;2022-12-18T05:20:06;102769.75;;;-4.98;75.44
59104;BME280;51449;51.676;5.812;2022-12-18T05:22:28;102767.06;;;-4.98;75.21
59104;BME280;51449;51.676;5.812;2022-12-18T05:24:50;102770.59;;;-4.98;75.11
59104;BME280;51449;51.676;5.812;2022-12-18T05:27:12;102765.06;;;-4.96;75.44
59104;BME280;51449;51.676;5.812;2022-12-18T05:29:34;102775.63;;;-4.95;75.45
59104;BME280;51449;51.676;5.812;2022-12-18T05:31:56;102760.31;;;-4.94;75.56
59104;BME280;51449;51.676;5.812;2022-12-18T05:34:17;102762.84;;;-4.92;75.61
59104;BME280;51449;51.676;5.812;2022-12-18T05:36:39;102765.34;;;-4.91;75.54
59104;BME280;51449;51.676;5.812;2022-12-18T05:39:01;102755.41;;;-4.90;75.20
59104;BME280;51449;51.676;5.812;2022-12-18T05:41:24;102753.38;;;-4.88;75.58
59104;BME280;51449;51.676;5.812;2022-12-18T05:43:46;102757.56;;;-4.86;75.41
59104;BME280;51449;51.676;5.812;2022-12-18T05:46:12;102757.56;;;-4.86;75.41
59104;BME280;51449;51.676;5.812;2022-12-18T05:48:36;102753.22;;;-4.87;75.22
59104;BME280;51449;51.676;5.812;2022-12-18T05:51:04;102745.97;;;-4.86;75.29
59104;BME280;51449;51.676;5.812;2022-12-18T05:53:28;102743.28;;;-4.86;75.17
59104;BME280;51449;51.676;5.812;2022-12-18T05:55:50;102727.31;;;-4.88;75.30
59104;BME280;51449;51.676;5.812;2022-12-18T05:58:13;102727.31;;;-4.88;75.25
59104;BME280;51449;51.676;5.812;2022-12-18T06:00:36;102731.88;;;-4.88;75.09
59104;BME280;51449;51.676;5.812;2022-12-18T06:03:02;102724.00;;;-4.90;75.49
59104;BME280;51449;51.676;5.812;2022-12-18T06:05:25;102721.31;;;-4.90;75.33
59104;BME280;51449;51.676;5.812;2022-12-18T06:07:47;102718.63;;;-4.90;75.35
59104;BME280;51449;51.676;5.812;2022-12-18T06:10:09;102716.78;;;-4.89;75.49
59104;BME280;51449;51.676;5.812;2022-12-18T06:12:31;102707.69;;;-4.88;75.50
59104;BME280;51449;51.676;5.812;2022-12-18T06:14:54;102700.44;;;-4.88;75.56
59104;BME280;51449;51.676;5.812;2022-12-18T06:17:16;102695.06;;;-4.88;75.36
59104;BME280;51449;51.676;5.812;2022-12-18T06:19:38;102697.59;;;-4.86;75.61
59104;BME280;51449;51.676;5.812;2022-12-18T06:22:00;102699.06;;;-4.84;75.71
59104;BME280;51449;51.676;5.812;2022-12-18T06:24:22;102697.19;;;-4.83;75.84
59104;BME280;51449;51.676;5.812;2022-12-18T06:26:44;102703.88;;;-4.79;75.59
59104;BME280;51449;51.676;5.812;2022-12-18T06:29:05;102703.72;;;-4.78;75.65
59104;BME280;51449;51.676;5.812;2022-12-18T06:31:27;102709.72;;;-4.76;75.79
59104;BME280;51449;51.676;5.812;2022-12-18T06:33:50;102694.25;;;-4.74;75.75
59104;BME280;51449;51.676;5.812;2022-12-18T06:36:12;102700.09;;;-4.70;75.85
59104;BME280;51449;51.676;5.812;2022-12-18T06:38:36;102692.84;;;-4.69;75.39
59104;BME280;51449;51.676;5.812;2022-12-18T06:41:00;102691.19;;;-4.70;75.34
59104;BME280;51449;51.676;5.812;2022-12-18T06:43:27;102688.69;;;-4.72;75.52
59104;BME280;51449;51.676;5.812;2022-12-18T06:45:49;102686.81;;;-4.71;75.74
59104;BME280;51449;51.676;5.812;2022-12-18T06:48:14;102685.16;;;-4.72;75.73
59104;BME280;51449;51.676;5.812;2022-12-18T06:50:36;102684.78;;;-4.69;75.62
59104;BME280;51449;51.676;5.812;2022-12-18T06:52:57;102678.38;;;-4.68;75.70
59104;BME280;51449;51.676;5.812;2022-12-18T06:55:19;102672.66;;;-4.65;75.85
59104;BME280;51449;51.676;5.812;2022-12-18T06:57:41;102674.13;;;-4.63;75.81
59104;BME280;51449;51.676;5.812;2022-12-18T07:00:05;102682.84;;;-4.61;75.69
59104;BME280;51449;51.676;5.812;2022-12-18T07:02:28;102677.28;;;-4.59;75.85
59104;BME280;51449;51.676;5.812;2022-12-18T07:04:50;102681.44;;;-4.57;75.85
59104;BME280;51449;51.676;5.812;2022-12-18T07:07:12;102675.88;;;-4.55;75.77
59104;BME280;51449;51.676;5.812;2022-12-18T07:09:34;102673.19;;;-4.55;76.07
59104;BME280;51449;51.676;5.812;2022-12-18T07:11:56;102667.00;;;-4.56;75.79
59104;BME280;51449;51.676;5.812;2022-12-18T07:14:18;102671.50;;;-4.56;76.06
59104;BME280;51449;51.676;5.812;2022-12-18T07:16:40;102667.81;;;-4.55;75.73
59104;BME280;51449;51.676;5.812;2022-12-18T07:19:02;102663.25;;;-4.55;75.71
59104;BME280;51449;51.676;5.812;2022-12-18T07:21:24;102660.41;;;-4.53;75.32
59104;BME280;51449;51.676;5.812;2022-12-18T07:23:47;102665.78;;;-4.53;75.25
59104;BME280;51449;51.676;5.812;2022-12-18T07:26:12;102666.59;;;-4.53;75.75
59104;BME280;51449;51.676;5.812;2022-12-18T07:28:36;102659.19;;;-4.50;75.34
59104;BME280;51449;51.676;5.812;2022-12-18T07:31:19;102657.97;;;-4.48;75.51
59104;BME280;51449;51.676;5.812;2022-12-18T07:33:43;102653.59;;;-4.49;75.51
59104;BME280;51449;51.676;5.812;2022-12-18T07:36:07;102662.31;;;-4.47;75.72
59104;BME280;51449;51.676;5.812;2022-12-18T07:38:30;102655.94;;;-4.46;75.76
59104;BME280;51449;51.676;5.812;2022-12-18T07:40:52;102652.22;;;-4.45;75.58
59104;BME280;51449;51.676;5.812;2022-12-18T07:43:14;102650.34;;;-4.44;75.54
59104;BME280;51449;51.676;5.812;2022-12-18T07:45:36;102657.19;;;-4.42;75.66
59104;BME280;51449;51.676;5.812;2022-12-18T07:47:58;102646.91;;;-4.38;75.68
59104;BME280;51449;51.676;5.812;2022-12-18T07:50:20;102633.25;;;-4.37;75.93
59104;BME280;51449;51.676;5.812;2022-12-18T07:52:42;102623.16;;;-4.35;75.70
59104;BME280;51449;51.676;5.812;2022-12-18T07:55:04;102616.75;;;-4.34;75.61
59104;BME280;51449;51.676;5.812;2022-12-18T07:57:27;102610.16;;;-4.31;75.94
59104;BME280;51449;51.676;5.812;2022-12-18T08:00:10;102624.06;;;-4.27;75.63
59104;BME280;51449;51.676;5.812;2022-12-18T08:02:33;102620.97;;;-4.24;76.15
59104;BME280;51449;51.676;5.812;2022-12-18T08:04:55;102619.19;;;-4.17;76.09
59104;BME280;51449;51.676;5.812;2022-12-18T08:07:17;102613.06;;;-4.11;75.83
59104;BME280;51449;51.676;5.812;2022-12-18T08:09:40;102602.53;;;-4.06;76.01
59104;BME280;51449;51.676;5.812;2022-12-18T08:12:02;102608.81;;;-3.99;76.10
59104;BME280;51449;51.676;5.812;2022-12-18T08:14:24;102609.72;;;-3.92;76.16
59104;BME280;51449;51.676;5.812;2022-12-18T08:16:46;102609.78;;;-3.85;76.05
59104;BME280;51449;51.676;5.812;2022-12-18T08:19:08;102608.19;;;-3.79;76.33
59104;BME280;51449;51.676;5.812;2022-12-18T08:21:30;102607.38;;;-3.73;76.30
59104;BME280;51449;51.676;5.812;2022-12-18T08:23:54;102613.66;;;-3.66;76.36
59104;BME280;51449;51.676;5.812;2022-12-18T08:26:18;102615.41;;;-3.58;76.70
59104;BME280;51449;51.676;5.812;2022-12-18T08:28:41;102605.88;;;-3.54;76.50
59104;BME280;51449;51.676;5.812;2022-12-18T08:31:04;102602.59;;;-3.50;76.69
59104;BME280;51449;51.676;5.812;2022-12-18T08:33:26;102609.06;;;-3.44;76.60
59104;BME280;51449;51.676;5.812;2022-12-18T08:35:49;102602.72;;;-3.36;76.71
59104;BME280;51449;51.676;5.812;2022-12-18T08:38:11;102616.03;;;-3.28;76.57
59104;BME280;51449;51.676;5.812;2022-12-18T08:40:32;102594.72;;;-3.23;76.43
59104;BME280;51449;51.676;5.812;2022-12-18T08:42:55;102591.41;;;-3.18;76.35
59104;BME280;51449;51.676;5.812;2022-12-18T08:45:35;102603.72;;;-3.09;76.50
59104;BME280;51449;51.676;5.812;2022-12-18T08:47:57;102602.91;;;-3.03;76.05
59104;BME280;51449;51.676;5.812;2022-12-18T08:50:19;102612.69;;;-2.95;76.04
59104;BME280;51449;51.676;5.812;2022-12-18T08:52:41;102621.66;;;-2.88;76.02
59104;BME280;51449;51.676;5.812;2022-12-18T08:55:03;102606.75;;;-2.84;76.03
59104;BME280;51449;51.676;5.812;2022-12-18T08:57:26;102600.53;;;-2.78;75.65
59104;BME280;51449;51.676;5.812;2022-12-18T08:59:48;102592.69;;;-2.73;75.46
59104;BME280;51449;51.676;5.812;2022-12-18T09:02:10;102587.72;;;-2.69;75.55
59104;BME280;51449;51.676;5.812;2022-12-18T09:04:33;102583.19;;;-2.62;75.60
59104;BME280;51449;51.676;5.812;2022-12-18T09:06:55;102584.22;;;-2.56;75.75
59104;BME280;51449;51.676;5.812;2022-12-18T09:09:17;102582.81;;;-2.52;75.13
59104;BME280;51449;51.676;5.812;2022-12-18T09:11:39;102592.81;;;-2.46;75.25
59104;BME280;51449;51.676;5.812;2022-12-18T09:14:01;102596.31;;;-2.39;74.86
59104;BME280;51449;51.676;5.812;2022-12-18T09:16:25;102591.16;;;-2.34;75.02
59104;BME280;51449;51.676;5.812;2022-12-18T09:18:54;102585.13;;;-2.29;74.72
59104;BME280;51449;51.676;5.812;2022-12-18T09:21:21;102577.47;;;-2.26;74.42
59104;BME280;51449;51.676;5.812;2022-12-18T09:23:48;102583.91;;;-2.20;74.73
59104;BME280;51449;51.676;5.812;2022-12-18T09:26:11;102591.81;;;-2.19;74.64
59104;BME280;51449;51.676;5.812;2022-12-18T09:28:33;102595.97;;;-2.16;74.23
59104;BME280;51449;51.676;5.812;2022-12-18T09:30:55;102604.28;;;-2.11;73.85
59104;BME280;51449;51.676;5.812;2022-12-18T09:33:17;102595.56;;;-2.06;74.17
59104;BME280;51449;51.676;5.812;2022-12-18T09:35:41;102593.28;;;-2.03;74.12
59104;BME280;51449;51.676;5.812;2022-12-18T09:38:05;102592.66;;;-1.98;73.81
59104;BME280;51449;51.676;5.812;2022-12-18T09:40:35;102597.03;;;-1.90;73.82
59104;BME280;51449;51.676;5.812;2022-12-18T09:43:04;102589.13;;;-1.85;73.85
59104;BME280;51449;51.676;5.812;2022-12-18T09:45:43;102592.47;;;-1.77;73.84
59104;BME280;51449;51.676;5.812;2022-12-18T09:48:17;102579.41;;;-1.73;73.81
59104;BME280;51449;51.676;5.812;2022-12-18T09:50:50;102575.03;;;-1.67;73.91
59104;BME280;51449;51.676;5.812;2022-12-18T09:53:24;102577.09;;;-1.63;73.43
59104;BME280;51449;51.676;5.812;2022-12-18T09:55:51;102589.38;;;-1.60;73.54
59104;BME280;51449;51.676;5.812;2022-12-18T09:58:36;102583.75;;;-1.52;73.50
59104;BME280;51449;51.676;5.812;2022-12-18T10:01:21;102569.59;;;-1.47;73.34
59104;BME280;51449;51.676;5.812;2022-12-18T10:03:45;102564.19;;;-1.41;73.25
59104;BME280;51449;51.676;5.812;2022-12-18T10:12:25;102536.50;;;-1.30;72.72
59104;BME280;51449;51.676;5.812;2022-12-18T10:15:06;102535.03;;;-1.25;72.47
59104;BME280;51449;51.676;5.812;2022-12-18T10:17:43;102536.28;;;-1.21;72.56
59104;BME280;51449;51.676;5.812;2022-12-18T10:20:29;102530.00;;;-1.15;72.24
59104;BME280;51449;51.676;5.812;2022-12-18T10:26:06;102532.69;;;-1.09;72.56
59104;BME280;51449;51.676;5.812;2022-12-18T10:28:33;102531.84;;;-1.02;72.00
59104;BME280;51449;51.676;5.812;2022-12-18T10:31:05;102533.06;;;-0.98;71.97
59104;BME280;51449;51.676;5.812;2022-12-18T10:33:39;102542.19;;;-0.93;72.00
59104;BME280;51449;51.676;5.812;2022-12-18T10:36:03;102550.28;;;-0.86;71.81
59104;BME280;51449;51.676;5.812;2022-12-18T10:38:30;102545.91;;;-0.80;72.18
59104;BME280;51449;51.676;5.812;2022-12-18T10:43:32;102525.66;;;-0.71;71.73
59104;BME280;51449;51.676;5.812;2022-12-18T10:48:31;102524.38;;;-0.62;71.78
59104;BME280;51449;51.676;5.812;2022-12-18T10:50:57;102512.28;;;-0.59;71.94
59104;BME280;51449;51.676;5.812;2022-12-18T10:53:36;102506.22;;;-0.55;71.72
59104;BME280;51449;51.676;5.812;2022-12-18T10:56:00;102494.94;;;-0.52;71.28
59104;BME280;51449;51.676;5.812;2022-12-18T10:58:32;102493.47;;;-0.48;71.27
59104;BME280;51449;51.676;5.812;2022-12-18T11:01:15;102486.34;;;-0.42;71.00
59104;BME280;51449;51.676;5.812;2022-12-18T11:03:43;102486.94;;;-0.40;70.96
59104;BME280;51449;51.676;5.812;2022-12-18T21:42:04;102062.59;;;0.92;75.36
59104;BME280;51449;51.676;5.812;2022-12-18T21:45:28;102064.25;;;0.93;75.61
59104;BME280;51449;51.676;5.812;2022-12-18T23:42:13;101897.38;;;1.07;80.25
59104;BME280;51449;51.676;5.812;2022-12-18T23:49:00;101870.00;;;1.09;80.48
59104;BME280;51449;51.676;5.812;2022-12-18T23:55:28;101875.50;;;1.14;80.03
59104;BME280;51449;51.676;5.812;2022-12-18T23:57:52;101873.38;;;1.16;80.18
